Time;durP1;ratioP1;P1;durP2;ratioP2;P2;SDS_P1;SDS_P2;PMS_P1;PMS_P2;Temp;Humidity;BMP_temperature;BMP_pressure;BME280_temperature;BME280_humidity;BME280_pressure;Samples;Min_cycle;Max_cycle;Signal;HPM_P1;HPM_P2
2022/08/17 00:00:54;;;;;;;12.73;8.02;;;;;;;23.59;39.19;99893.75;10575377;28;20190;-81
2022/08/17 00:06:20;;;;;;;11.23;7.90;;;;;;;23.79;39.02;99897.56;10541989;28;20233;-83
2022/08/17 00:11:43;;;;;;;14.55;8.15;;;;;;;23.91;38.61;99884.59;10589395;28;20285;-83
2022/08/17 00:17:05;;;;;;;10.57;8.80;;;;;;;23.79;39.42;99891.81;10559979;28;20189;-83
2022/08/17 00:22:27;;;;;;;10.18;8.30;;;;;;;23.79;38.83;99880.28;10589680;27;20190;-83
2022/08/17 00:27:50;;;;;;;10.85;7.85;;;;;;;23.96;38.56;99892.72;10545011;27;20251;-83
2022/08/17 00:33:15;;;;;;;12.13;8.75;;;;;;;23.99;38.47;99880.34;10577178;27;20325;-82
2022/08/17 00:38:38;;;;;;;12.05;8.48;;;;;;;24.00;38.32;99878.28;10571216;28;20502;-83
2022/08/17 00:44:02;;;;;;;11.80;8.32;;;;;;;23.90;38.80;99875.16;10554491;28;20536;-83
2022/08/17 00:49:25;;;;;;;9.43;8.07;;;;;;;24.26;37.66;99869.56;10572977;28;20198;-83
2022/08/17 00:54:48;;;;;;;7.80;7.00;;;;;;;24.33;37.79;99874.34;10573171;28;20679;-83
2022/08/17 01:00:20;;;;;;;9.27;7.75;;;;;;;24.32;37.67;99866.19;10572913;28;20189;-83
2022/08/17 01:05:42;;;;;;;11.02;7.72;;;;;;;24.25;37.16;99873.69;10555079;28;20194;-83
2022/08/17 01:11:05;;;;;;;11.43;7.70;;;;;;;24.41;36.42;99864.34;10572482;28;20217;-82
2022/08/17 01:16:29;;;;;;;10.65;7.10;;;;;;;24.40;36.78;99856.94;10557767;28;20189;-83
2022/08/17 01:22:03;;;;;;;7.20;6.47;;;;;;;24.00;38.00;99870.44;10551887;28;20198;-83
2022/08/17 01:27:26;;;;;;;8.98;7.65;;;;;;;23.80;38.22;99867.53;10568231;28;20202;-83
2022/08/17 01:32:48;;;;;;;8.82;7.22;;;;;;;23.50;39.37;99873.34;10565586;28;20225;-83
2022/08/17 01:38:10;;;;;;;10.73;7.80;;;;;;;23.65;38.59;99869.03;10569201;28;20190;-83
2022/08/17 01:43:50;;;;;;;11.88;8.48;;;;;;;23.72;38.97;99873.84;10585165;28;20182;-82
2022/08/17 01:49:12;;;;;;;10.25;8.75;;;;;;;23.67;39.30;99862.84;10556714;28;20193;-83
2022/08/17 01:54:35;;;;;;;10.00;9.00;;;;;;;23.61;39.14;99869.06;10585902;27;20498;-83
2022/08/17 01:59:57;;;;;;;12.57;9.40;;;;;;;23.49;40.02;99863.91;10553039;27;20231;-83
2022/08/17 02:05:19;;;;;;;14.27;9.68;;;;;;;23.52;39.59;99871.69;10585043;28;20244;-83
2022/08/17 02:10:42;;;;;;;10.52;9.45;;;;;;;23.51;39.69;99870.06;10584880;28;20225;-82
2022/08/17 02:16:04;;;;;;;11.52;9.70;;;;;;;23.23;40.17;99870.50;10535268;28;20201;-83
2022/08/17 02:21:27;;;;;;;12.38;8.90;;;;;;;23.11;40.45;99856.72;10552314;28;20266;-83
2022/08/17 02:26:49;;;;;;;12.48;9.15;;;;;;;23.23;39.67;99854.06;10551998;28;20259;-82
2022/08/17 02:32:23;;;;;;;13.63;8.40;;;;;;;23.37;39.71;99855.09;10567740;28;20255;-82
2022/08/17 02:37:45;;;;;;;12.20;7.88;;;;;;;23.47;38.45;99854.09;10569508;28;20198;-80
2022/08/17 02:43:08;;;;;;;8.13;5.80;;;;;;;23.05;38.35;99853.47;10565885;28;20193;-82
2022/08/17 02:48:30;;;;;;;6.85;6.22;;;;;;;23.47;38.52;99862.72;10570864;28;20193;-80
2022/08/17 02:53:52;;;;;;;10.43;6.38;;;;;;;23.38;37.74;99853.84;10584874;28;20274;-82
2022/08/17 02:59:14;;;;;;;6.80;6.07;;;;;;;23.50;37.93;99851.16;10577510;28;20189;-82
2022/08/17 03:04:37;;;;;;;7.82;6.22;;;;;;;23.60;37.43;99849.34;10579465;27;20246;-82
2022/08/17 03:09:59;;;;;;;7.18;5.85;;;;;;;23.72;37.27;99845.88;10559470;28;20221;-81
2022/08/17 03:15:25;;;;;;;6.60;5.72;;;;;;;23.56;37.59;99840.75;10559337;28;20241;-80
2022/08/17 03:20:47;;;;;;;8.32;4.97;;;;;;;23.83;36.69;99840.72;10577011;28;20536;-83
2022/08/17 03:26:09;;;;;;;8.50;6.00;;;;;;;23.39;38.13;99839.03;10576436;28;20266;-83
2022/08/17 03:31:32;;;;;;;9.55;6.93;;;;;;;23.25;38.09;99840.06;10591088;28;20205;-82
2022/08/17 03:36:54;;;;;;;9.95;6.20;;;;;;;23.48;37.82;99838.47;10590044;27;20197;-83
2022/08/17 03:42:19;;;;;;;9.82;5.90;;;;;;;23.07;38.95;99839.47;10599280;27;20227;-83
2022/08/17 03:59:04;;;;;;;7.97;6.57;;;;;;;23.15;38.30;99846.81;10584718;27;20247;-82
2022/08/17 04:04:26;;;;;;;6.78;6.18;;;;;;;23.41;38.14;99848.03;10575366;27;20646;-83
2022/08/17 04:09:48;;;;;;;7.50;6.43;;;;;;;23.44;38.26;99846.31;10606710;27;20283;-82
2022/08/17 04:15:11;;;;;;;7.65;5.95;;;;;;;23.29;37.10;99850.69;10574521;28;20214;-81
2022/08/17 04:20:33;;;;;;;8.23;6.20;;;;;;;23.50;37.85;99847.47;10574764;28;20181;-83
2022/08/17 04:25:56;;;;;;;10.18;6.18;;;;;;;23.47;36.94;99851.22;10558877;28;20202;-84
2022/08/17 04:31:18;;;;;;;10.32;7.80;;;;;;;23.31;37.30;99848.19;10588070;28;20193;-84
2022/08/17 04:36:40;;;;;;;7.60;5.43;;;;;;;23.34;37.43;99864.56;10560460;28;20258;-83
2022/08/17 04:42:08;;;;;;;9.30;6.20;;;;;;;23.14;38.42;99862.41;10588079;28;20194;-84
2022/08/17 04:47:30;;;;;;;7.97;6.40;;;;;;;23.22;37.63;99875.44;10561026;28;20197;-84
2022/08/17 04:52:53;;;;;;;8.18;6.40;;;;;;;23.23;38.03;99877.06;10572809;28;20218;-85
2022/08/17 04:58:15;;;;;;;9.70;6.75;;;;;;;23.63;37.25;99870.69;10557351;27;20342;-84
2022/08/17 05:03:37;;;;;;;10.52;6.45;;;;;;;23.56;37.72;99871.59;10570709;28;20655;-84
2022/08/17 05:08:59;;;;;;;45.40;9.32;;;;;;;23.48;37.83;99875.84;10583210;28;20262;-82
2022/08/17 05:14:22;;;;;;;28.75;9.00;;;;;;;23.65;38.28;99886.28;10552556;28;20213;-84
2022/08/17 05:19:46;;;;;;;24.33;8.02;;;;;;;23.66;37.68;99890.81;10581655;28;20197;-81
2022/08/17 05:25:08;;;;;;;14.73;6.70;;;;;;;23.53;38.00;99895.50;10552435;28;20215;-84
2022/08/17 05:30:31;;;;;;;12.63;6.35;;;;;;;23.60;37.99;99893.31;10579247;27;20255;-80
2022/08/17 05:35:55;;;;;;;14.50;6.15;;;;;;;23.93;37.05;99888.69;10555264;27;20270;-80
2022/08/17 05:41:17;;;;;;;8.15;5.78;;;;;;;23.73;36.39;99881.22;10562133;28;20194;-81
2022/08/17 05:46:42;;;;;;;5.85;5.32;;;;;;;23.54;37.97;99880.69;10578611;27;20197;-80
2022/08/17 05:52:34;;;;;;;10.32;5.28;;;;;;;23.69;38.23;99881.28;10566163;28;20209;-80
2022/08/17 05:58:31;;;;;;;8.50;5.47;;;;;;;24.01;38.38;99874.16;10584041;27;20208;-80
2022/08/17 06:04:25;;;;;;;12.63;6.47;;;;;;;23.82;38.51;99867.06;10588171;27;20194;-80
2022/08/17 06:09:56;;;;;;;10.93;5.70;;;;;;;23.84;37.63;99870.31;10598888;27;20336;-80
2022/08/17 06:15:33;;;;;;;9.70;5.80;;;;;;;24.02;36.69;99870.00;10572032;27;20633;-81
2022/08/17 06:20:58;;;;;;;10.45;6.30;;;;;;;23.83;36.01;99866.63;10570294;28;20196;-80
2022/08/17 06:26:24;;;;;;;9.38;5.45;;;;;;;23.99;35.48;99859.38;10603910;28;20223;-80
2022/08/17 06:31:46;;;;;;;6.88;4.50;;;;;;;23.46;36.38;99866.84;10560790;28;20649;-80
2022/08/17 06:37:17;;;;;;;8.98;4.93;;;;;;;24.11;35.50;99858.72;10546155;28;20234;-80
2022/08/17 06:43:02;;;;;;;6.90;4.78;;;;;;;23.78;35.60;99855.66;10584655;28;20269;-81
2022/08/17 06:48:34;;;;;;;10.43;4.55;;;;;;;24.21;35.23;99860.63;10567307;28;20198;-80
2022/08/17 06:54:18;;;;;;;9.65;5.47;;;;;;;24.65;34.95;99854.34;10561258;28;20477;-80
2022/08/17 06:59:49;;;;;;;11.20;4.78;;;;;;;24.45;34.75;99867.97;10564127;28;20208;-81
2022/08/17 07:05:16;;;;;;;10.20;4.63;;;;;;;24.31;34.92;99859.63;10569014;28;20324;-80
2022/08/17 07:10:45;;;;;;;11.20;4.65;;;;;;;24.55;34.66;99872.69;10574785;28;20233;-80
2022/08/17 07:16:17;;;;;;;7.85;4.90;;;;;;;24.30;34.87;99867.44;10582207;28;20221;-81
2022/08/17 07:22:07;;;;;;;11.65;4.60;;;;;;;24.67;34.89;99863.38;10564292;28;20182;-81
2022/08/17 07:27:31;;;;;;;10.40;4.35;;;;;;;25.17;33.89;99859.41;10592819;28;20220;-80
2022/08/17 07:32:58;;;;;;;10.35;4.45;;;;;;;25.13;33.87;99873.06;10586393;28;20270;-80
2022/08/17 07:38:27;;;;;;;6.38;4.47;;;;;;;25.30;33.77;99873.97;10595901;28;20262;-80
2022/08/17 07:43:51;;;;;;;9.43;4.30;;;;;;;25.32;33.36;99878.03;10558047;28;20194;-80
2022/08/17 07:49:13;;;;;;;8.52;4.18;;;;;;;25.57;33.11;99874.53;10564888;27;20190;-80
2022/08/17 07:54:38;;;;;;;7.28;4.35;;;;;;;25.52;33.58;99880.81;10573281;27;20217;-81
2022/08/17 08:00:00;;;;;;;6.03;4.05;;;;;;;25.84;34.54;99897.38;10582546;27;20202;-81
2022/08/17 08:05:25;;;;;;;10.68;4.97;;;;;;;24.98;34.82;99915.84;10575494;28;20202;-80
2022/08/17 08:11:01;;;;;;;8.45;4.53;;;;;;;24.72;34.73;99922.56;10569905;27;20221;-81
2022/08/17 08:16:27;;;;;;;7.00;4.50;;;;;;;25.69;33.01;99910.50;10578049;28;20256;-80
2022/08/17 08:21:55;;;;;;;7.10;3.42;;;;;;;25.20;33.29;99916.19;10548477;28;20202;-80
2022/08/17 08:27:45;;;;;;;8.43;3.47;;;;;;;25.15;33.58;99924.53;10586600;28;20247;-80
2022/08/17 08:33:30;;;;;;;5.55;3.60;;;;;;;25.85;31.92;99913.44;10568078;27;20206;-81
2022/08/17 08:39:02;;;;;;;5.25;3.50;;;;;;;26.60;31.17;99914.31;10602221;27;20193;-80
2022/08/17 08:44:35;;;;;;;7.88;3.50;;;;;;;26.87;30.75;99905.31;10551914;27;20242;-80
2022/08/17 08:50:08;;;;;;;4.20;2.97;;;;;;;26.87;30.74;99911.91;10555687;28;20252;-80
2022/08/17 08:56:00;;;;;;;6.88;3.05;;;;;;;26.71;30.50;99912.75;10592115;27;20618;-80
2022/08/17 09:01:27;;;;;;;5.20;2.75;;;;;;;26.73;31.42;99907.31;10558285;27;20198;-80
2022/08/17 09:07:08;;;;;;;6.50;3.08;;;;;;;27.13;30.03;99895.41;10559908;27;20479;-80
2022/08/17 09:12:55;;;;;;;5.57;3.00;;;;;;;27.24;30.35;99898.75;10530530;28;20226;-81
2022/08/17 09:18:37;;;;;;;3.30;3.00;;;;;;;27.32;29.13;99884.91;10527425;28;20202;-81
2022/08/17 09:24:30;;;;;;;6.43;3.40;;;;;;;27.26;29.88;99899.16;10543268;28;20191;-81
2022/08/17 09:29:56;;;;;;;6.05;2.92;;;;;;;27.24;29.97;99890.09;10543326;28;20194;-81
2022/08/17 09:35:28;;;;;;;5.90;3.75;;;;;;;26.94;29.96;99910.84;10540750;28;20560;-81
2022/08/17 09:41:06;;;;;;;5.90;3.45;;;;;;;26.76;30.41;99908.53;10557843;28;20198;-80
2022/08/17 09:46:38;;;;;;;4.93;2.85;;;;;;;26.62;30.42;99906.00;10528610;28;20196;-80
2022/08/17 09:52:14;;;;;;;8.07;3.50;;;;;;;26.67;30.52;99902.53;10542794;28;20194;-81
2022/08/17 09:58:12;;;;;;;7.40;3.65;;;;;;;26.85;31.12;99902.06;10543587;28;20195;-80
2022/08/17 10:03:50;;;;;;;6.68;3.55;;;;;;;26.86;31.51;99897.91;10524208;28;20194;-81
2022/08/17 10:09:22;;;;;;;5.85;3.65;;;;;;;26.89;31.96;99896.97;10519893;28;20280;-81
2022/08/17 10:15:09;;;;;;;5.85;4.45;;;;;;;27.17;31.48;99886.63;10526182;28;20610;-80
2022/08/17 10:20:40;;;;;;;9.02;3.83;;;;;;;26.86;32.15;99892.91;10553638;28;20193;-80
2022/08/17 10:26:11;;;;;;;6.90;4.57;;;;;;;26.84;31.36;99898.34;10542126;28;20186;-80
2022/08/17 10:31:36;;;;;;;11.32;4.88;;;;;;;26.79;31.68;99898.13;10521688;28;20492;-81
2022/08/17 10:37:21;;;;;;;5.30;4.18;;;;;;;26.18;33.14;99911.31;10537803;28;20246;-80
2022/08/17 10:42:48;;;;;;;5.82;4.63;;;;;;;26.65;32.66;99923.25;10539599;28;20491;-80
2022/08/17 10:48:28;;;;;;;7.20;4.90;;;;;;;26.16;33.19;99933.25;10535660;28;20668;-80
2022/08/17 10:53:51;;;;;;;7.30;5.60;;;;;;;26.94;31.98;99910.84;10522706;28;20560;-80
2022/08/17 10:59:35;;;;;;;7.20;5.88;;;;;;;26.84;33.15;99930.16;10495079;28;20199;-80
2022/08/17 11:05:15;;;;;;;7.45;6.28;;;;;;;26.84;32.99;99940.91;10537812;28;20202;-82
2022/08/17 11:11:15;;;;;;;11.05;6.82;;;;;;;25.98;34.26;99949.00;10547161;28;20227;-81
2022/08/17 11:16:49;;;;;;;10.70;7.60;;;;;;;25.90;35.26;99940.94;10517041;28;20245;-82
2022/08/17 11:22:33;;;;;;;8.30;7.18;;;;;;;26.12;35.12;99947.81;10532530;28;20462;-81
2022/08/17 11:28:14;;;;;;;12.63;7.97;;;;;;;25.45;35.68;99952.34;10514423;28;20198;-83
2022/08/17 11:33:39;;;;;;;9.63;7.82;;;;;;;25.86;35.51;99946.00;10513578;28;20246;-82
2022/08/17 11:39:18;;;;;;;15.23;9.00;;;;;;;25.34;35.94;99962.06;10540407;28;20202;-81
2022/08/17 11:44:55;;;;;;;11.70;8.93;;;;;;;25.39;36.10;99962.78;10530180;28;20187;-81
2022/08/17 11:56:28;;;;;;;11.85;10.27;;;;;;;26.01;35.10;99947.28;10529004;28;20283;-83
2022/08/17 12:01:55;;;;;;;15.95;12.35;;;;;;;25.82;35.79;99946.09;10497455;28;20288;-81
2022/08/17 12:07:20;;;;;;;16.42;12.30;;;;;;;25.83;35.99;99959.28;10523765;28;20211;-82
2022/08/17 12:12:43;;;;;;;18.15;12.77;;;;;;;26.23;34.91;99959.06;10529368;28;20223;-82
2022/08/17 12:18:05;;;;;;;17.02;12.25;;;;;;;26.58;34.56;99955.25;10524953;28;20206;-82
2022/08/17 12:23:53;;;;;;;14.50;11.00;;;;;;;26.92;35.02;99948.94;10529035;28;20216;-83
2022/08/17 12:29:16;;;;;;;17.23;14.48;;;;;;;26.42;34.72;99941.63;10525535;28;20202;-82
2022/08/17 12:34:40;;;;;;;15.60;14.00;;;;;;;26.63;34.76;99946.03;10507505;28;20253;-82
2022/08/17 12:40:07;;;;;;;19.83;13.50;;;;;;;27.01;33.83;99942.47;10490683;28;20222;-82
2022/08/17 12:45:40;;;;;;;16.48;13.65;;;;;;;26.89;34.74;99949.03;10528965;28;20484;-81
2022/08/17 12:51:04;;;;;;;20.13;18.10;;;;;;;26.26;35.35;99956.13;10524068;28;20240;-83
2022/08/17 12:56:28;;;;;;;21.80;17.90;;;;;;;26.79;35.26;99944.38;10525022;28;20622;-82
2022/08/17 13:01:50;;;;;;;22.20;19.25;;;;;;;26.63;34.89;99943.13;10509988;28;20206;-82
2022/08/17 13:07:27;;;;;;;23.55;18.30;;;;;;;27.08;34.50;99933.56;10519011;28;20554;-83
2022/08/17 13:12:51;;;;;;;22.95;19.42;;;;;;;26.50;35.11;99924.13;10516086;28;20254;-80
2022/08/17 13:18:39;;;;;;;22.88;18.88;;;;;;;28.02;33.58;99916.50;10504333;28;20223;-81
2022/08/17 13:24:18;;;;;;;27.95;19.98;;;;;;;28.53;31.79;99921.34;10523595;28;20648;-83
2022/08/17 13:29:43;;;;;;;28.67;23.25;;;;;;;26.96;33.94;99925.69;10521169;28;20508;-83
2022/08/17 13:35:24;;;;;;;25.35;21.83;;;;;;;27.20;34.51;99924.09;10522308;28;20218;-83
2022/08/17 13:40:50;;;;;;;23.38;20.17;;;;;;;27.57;33.57;99918.84;10528341;28;20195;-83
2022/08/17 13:46:22;;;;;;;33.20;25.35;;;;;;;27.01;33.69;99934.63;10519652;28;20230;-83
2022/08/17 13:51:47;;;;;;;23.85;21.15;;;;;;;27.72;33.22;99926.56;10514705;28;20221;-81
2022/08/17 13:57:21;;;;;;;23.58;21.10;;;;;;;27.29;34.04;99923.47;10509174;28;20618;-82
2022/08/17 14:02:43;;;;;;;27.67;21.77;;;;;;;28.28;33.02;99916.47;10534083;28;20287;-84
2022/08/17 14:08:05;;;;;;;28.27;25.33;;;;;;;27.79;32.85;99919.78;10528812;28;20549;-81
2022/08/17 14:13:27;;;;;;;31.67;25.63;;;;;;;28.18;32.36;99909.75;10515150;28;20222;-83
2022/08/17 14:18:50;;;;;;;28.40;25.52;;;;;;;27.80;33.32;99915.63;10526697;28;20585;-84
2022/08/17 14:24:29;;;;;;;28.55;25.45;;;;;;;27.02;34.26;99900.72;10540050;28;20253;-84
2022/08/17 14:29:52;;;;;;;26.13;23.50;;;;;;;28.94;32.22;99894.13;10530587;28;20194;-83
2022/08/17 14:35:14;;;;;;;22.73;20.25;;;;;;;29.10;31.07;99896.81;10521414;28;20242;-81
2022/08/17 14:40:37;;;;;;;31.10;24.40;;;;;;;28.53;32.84;99890.25;10527096;28;20190;-82
2022/08/17 14:46:00;;;;;;;28.48;25.38;;;;;;;27.65;33.55;99903.66;10504341;28;20199;-81
2022/08/17 14:51:22;;;;;;;29.02;25.35;;;;;;;27.38;35.24;99895.44;10526588;28;20247;-81
2022/08/17 14:56:45;;;;;;;27.50;24.63;;;;;;;27.76;33.93;99892.56;10547720;28;20246;-81
2022/08/17 15:02:09;;;;;;;31.48;28.17;;;;;;;28.21;33.58;99897.22;10516225;28;20267;-81
2022/08/17 15:07:34;;;;;;;34.97;31.38;;;;;;;27.11;35.47;99895.84;10536612;28;20295;-81
2022/08/17 15:12:58;;;;;;;35.80;30.17;;;;;;;27.52;34.96;99894.19;10479108;28;20242;-80
2022/08/17 15:18:20;;;;;;;44.30;36.53;;;;;;;27.58;35.16;99903.06;10482440;28;20297;-80
2022/08/17 15:23:43;;;;;;;38.08;34.28;;;;;;;27.86;34.67;99889.75;10444955;28;20258;-81
2022/08/17 15:29:09;;;;;;;41.40;36.95;;;;;;;27.49;35.76;99895.09;10483323;28;20206;-81
2022/08/17 15:34:31;;;;;;;41.10;36.75;;;;;;;27.16;35.83;99905.25;10467409;28;20203;-84
2022/08/17 15:39:54;;;;;;;42.70;37.15;;;;;;;28.01;34.67;99885.91;10459506;28;20261;-80
2022/08/17 15:45:21;;;;;;;40.30;34.92;;;;;;;27.50;34.90;99884.34;10463484;28;20249;-81
2022/08/17 15:50:44;;;;;;;36.08;31.42;;;;;;;27.84;33.99;99881.53;10494083;28;20199;-84
2022/08/17 15:56:10;;;;;;;36.00;32.10;;;;;;;28.27;33.60;99886.66;10466939;28;20533;-81
2022/08/17 16:01:32;;;;;;;37.92;32.63;;;;;;;28.21;34.04;99881.91;10483105;28;20260;-81
2022/08/17 16:06:55;;;;;;;41.47;37.15;;;;;;;28.16;33.41;99872.53;10459244;28;20238;-81
2022/08/17 16:12:28;;;;;;;43.92;39.25;;;;;;;27.55;34.66;99875.06;10505999;28;20252;-84
2022/08/17 16:17:57;;;;;;;42.42;37.88;;;;;;;27.24;35.17;99875.63;10556797;27;20269;-82
2022/08/17 16:23:22;;;;;;;38.80;34.92;;;;;;;27.66;34.60;99881.31;10559543;28;21180;-83
2022/08/17 16:28:45;;;;;;;38.47;34.45;;;;;;;28.24;33.61;99886.78;10534255;28;20659;-83
2022/08/17 16:34:08;;;;;;;41.90;36.53;;;;;;;26.46;36.51;99906.88;10562728;27;20225;-83
2022/08/17 16:39:33;;;;;;;39.00;34.97;;;;;;;26.88;36.52;99907.75;10536005;28;20214;-83
2022/08/17 16:45:01;;;;;;;42.78;38.17;;;;;;;27.33;35.51;99904.69;10547849;28;20283;-81
2022/08/17 16:50:24;;;;;;;39.75;35.70;;;;;;;25.46;39.19;99914.38;10561535;28;20754;-81
2022/08/17 16:55:52;;;;;;;37.10;33.30;;;;;;;26.73;37.20;99916.00;10588406;27;20770;-80
2022/08/17 17:01:14;;;;;;;48.08;43.20;;;;;;;26.63;37.22;99920.00;10548170;28;20210;-84
2022/08/17 17:07:11;;;;;;;56.47;50.67;;;;;;;27.08;37.21;99927.78;10560285;28;20633;-82
2022/08/17 17:12:33;;;;;;;56.88;51.25;;;;;;;26.49;37.83;99940.66;10561651;28;20633;-81
2022/08/17 17:18:02;;;;;;;58.38;52.17;;;;;;;24.57;42.05;99942.22;10553205;27;20246;-82
2022/08/17 17:23:40;;;;;;;55.80;50.08;;;;;;;25.72;39.87;99947.97;10548876;28;20217;-82
2022/08/17 17:29:15;;;;;;;51.95;47.00;;;;;;;27.04;37.17;99945.28;10548894;27;20686;-81
2022/08/17 17:34:38;;;;;;;53.63;47.92;;;;;;;26.75;37.46;99956.81;10560635;27;20229;-82
2022/08/17 17:40:08;;;;;;;50.65;45.63;;;;;;;26.37;37.99;99935.63;10540144;28;20490;-84
2022/08/17 17:45:42;;;;;;;49.55;44.47;;;;;;;26.48;37.85;99941.91;10550082;27;20222;-83
2022/08/17 17:51:16;;;;;;;42.28;38.08;;;;;;;26.38;37.82;99948.81;10543900;27;20224;-83
2022/08/17 17:56:50;;;;;;;42.63;38.15;;;;;;;26.29;37.97;99965.94;10580717;27;20268;-83
2022/08/17 18:02:46;;;;;;;42.42;38.30;;;;;;;26.39;38.10;99985.09;10539291;27;20381;-81
2022/08/17 18:08:16;;;;;;;45.25;40.72;;;;;;;25.97;38.70;99992.75;10542104;27;20225;-84
2022/08/17 18:14:37;;;;;;;44.10;39.83;;;;;;;25.86;39.30;100004.56;10553965;28;20935;-83
2022/08/17 18:20:00;;;;;;;43.83;39.35;;;;;;;25.81;38.59;100007.97;10297213;28;20229;-83
2022/08/17 18:25:42;;;;;;;45.65;40.65;;;;;;;25.67;39.62;100009.09;10543909;27;20530;-83
2022/08/17 18:31:15;;;;;;;44.15;39.58;;;;;;;25.39;40.23;100009.75;10573361;27;20197;-88
2022/08/17 18:36:39;;;;;;;45.08;40.40;;;;;;;25.35;40.73;100021.38;10544465;28;20241;-88
2022/08/17 18:42:03;;;;;;;43.90;39.40;;;;;;;25.48;40.58;100023.59;10579921;28;20205;-87
2022/08/17 18:47:27;;;;;;;43.75;39.03;;;;;;;25.58;39.97;100010.97;10543142;28;20217;-90
2022/08/17 18:52:50;;;;;;;43.72;39.42;;;;;;;25.04;40.52;100022.84;10551108;28;20483;-90
2022/08/17 18:58:19;;;;;;;45.53;41.10;;;;;;;25.23;40.79;100019.16;10542338;28;20230;-89
2022/08/17 19:03:42;;;;;;;44.42;39.83;;;;;;;25.83;38.99;100027.75;10582579;28;20538;-91
2022/08/17 19:09:28;;;;;;;44.63;40.25;;;;;;;25.43;39.96;100035.63;10562007;28;20230;-90
2022/08/17 19:14:51;;;;;;;42.08;37.92;;;;;;;25.80;39.14;100041.00;10561486;28;20210;-88
2022/08/17 19:20:25;;;;;;;40.95;36.75;;;;;;;25.71;39.48;100053.16;10569208;28;20197;-90
2022/08/17 19:25:50;;;;;;;42.15;37.85;;;;;;;25.65;39.45;100068.53;10566360;28;20642;-91
2022/08/17 19:31:17;;;;;;;43.38;38.97;;;;;;;25.61;39.88;100068.63;10569034;28;20213;-91
2022/08/17 19:36:56;;;;;;;43.75;39.13;;;;;;;25.45;40.00;100073.53;10559284;28;20270;-89
2022/08/17 19:42:35;;;;;;;44.65;40.42;;;;;;;25.49;40.32;100059.84;10572065;28;20377;-90
2022/08/17 19:48:12;;;;;;;45.22;40.60;;;;;;;25.39;40.23;100067.44;10556273;28;20198;-89
2022/08/17 19:54:19;;;;;;;42.00;37.88;;;;;;;25.10;41.47;100061.44;10594185;27;20466;-92
2022/08/17 19:59:49;;;;;;;47.33;42.20;;;;;;;25.27;40.70;100054.50;10513784;28;20637;-92
2022/08/17 20:05:23;;;;;;;45.88;41.25;;;;;;;25.22;41.34;100046.38;10568506;28;20220;-90
2022/08/17 20:10:51;;;;;;;47.20;42.10;;;;;;;24.96;41.59;100058.84;10596379;27;20220;-91
2022/08/17 20:16:14;;;;;;;46.42;41.45;;;;;;;24.90;41.59;100070.06;10555430;28;20213;-90
2022/08/17 20:21:58;;;;;;;46.60;41.90;;;;;;;24.57;42.68;100074.78;10591435;27;20198;-87
2022/08/17 20:27:27;;;;;;;49.83;44.50;;;;;;;25.16;41.67;100082.72;10565570;28;20186;-91
2022/08/17 20:32:55;;;;;;;49.90;44.80;;;;;;;24.89;42.19;100090.69;10584515;27;20186;-88
2022/08/17 20:38:41;;;;;;;49.92;44.75;;;;;;;24.59;42.94;100082.94;10566888;28;20629;-91
2022/08/17 20:44:05;;;;;;;48.28;43.15;;;;;;;24.64;42.70;100079.56;10555063;27;20259;-90
2022/08/17 20:49:43;;;;;;;51.70;46.30;;;;;;;24.77;42.63;100089.25;10579719;27;20238;-89
2022/08/17 20:55:05;;;;;;;50.75;45.55;;;;;;;24.61;43.21;100092.78;10555775;27;20218;-91
2022/08/17 21:00:39;;;;;;;50.05;44.83;;;;;;;24.16;43.83;100098.06;10565795;28;20198;-89
2022/08/17 21:06:04;;;;;;;53.90;47.25;;;;;;;24.64;43.14;100106.34;10616921;27;20198;-88
2022/08/17 21:11:26;;;;;;;52.55;47.03;;;;;;;24.46;42.76;100108.69;10562259;28;20507;-90
2022/08/17 21:17:21;;;;;;;49.15;44.22;;;;;;;24.42;43.08;100087.78;10580116;28;20218;-91
2022/08/17 21:23:15;;;;;;;49.22;43.92;;;;;;;23.76;44.06;100094.13;10572087;27;20467;-88
2022/08/17 21:28:47;;;;;;;44.85;40.45;;;;;;;24.56;42.32;100101.13;10586312;27;20206;-91
2022/08/17 21:34:15;;;;;;;47.05;42.35;;;;;;;24.41;42.41;100105.50;10565126;28;20224;-92
2022/08/17 21:39:39;;;;;;;47.40;42.53;;;;;;;23.67;44.13;100101.66;10548389;28;20291;-90
2022/08/17 21:45:20;;;;;;;46.95;42.00;;;;;;;23.56;44.73;100116.13;10559694;27;20470;-92
2022/08/17 21:50:46;;;;;;;45.88;41.13;;;;;;;23.98;43.78;100106.13;10586690;27;20198;-91
2022/08/17 21:56:10;;;;;;;44.45;39.83;;;;;;;23.51;44.48;100108.81;10533975;27;20270;-90
2022/08/17 22:01:34;;;;;;;44.42;39.90;;;;;;;23.34;45.09;100106.97;10538093;28;20512;-91
2022/08/17 22:07:03;;;;;;;48.08;43.17;;;;;;;23.25;45.27;100112.41;10564546;28;20226;-88
2022/08/17 22:12:26;;;;;;;45.58;40.88;;;;;;;23.18;45.28;100121.94;10554196;28;20274;-88
2022/08/17 22:17:48;;;;;;;49.20;44.35;;;;;;;23.13;46.09;100139.66;10548178;28;20218;-88
2022/08/17 22:28:57;;;;;;;49.42;44.40;;;;;;;23.31;45.10;100130.81;10575549;28;20242;-91
2022/08/17 22:34:19;;;;;;;52.35;46.97;;;;;;;23.23;45.79;100135.84;10553836;28;20255;-91
2022/08/17 22:39:41;;;;;;;53.63;48.03;;;;;;;23.24;45.74;100136.66;10553386;28;20230;-92
2022/08/17 22:45:07;;;;;;;50.65;45.53;;;;;;;22.97;46.58;100127.06;10573422;28;20209;-82
2022/08/17 22:50:31;;;;;;;51.72;46.58;;;;;;;22.01;49.01;100145.84;10542752;28;20194;-89
2022/08/17 23:01:37;;;;;;;55.17;49.42;;;;;;;23.18;46.43;100153.56;10572375;28;20193;-89
2022/08/17 23:07:00;;;;;;;51.47;46.03;;;;;;;23.04;46.07;100150.78;10560950;28;20270;-87
2022/08/17 23:12:25;;;;;;;52.78;47.17;;;;;;;22.86;46.67;100142.38;10566237;28;20479;-82
2022/08/17 23:17:47;;;;;;;51.40;46.05;;;;;;;22.78;46.38;100139.97;10539214;27;20294;-81
2022/08/17 23:23:11;;;;;;;49.88;44.63;;;;;;;22.63;46.92;100142.19;10585103;27;20201;-81
2022/08/17 23:28:36;;;;;;;50.88;45.15;;;;;;;23.03;45.74;100129.03;10561930;28;20381;-82
2022/08/17 23:33:59;;;;;;;52.05;46.47;;;;;;;22.91;45.93;100135.31;10540680;28;20255;-82
2022/08/17 23:39:22;;;;;;;49.53;44.45;;;;;;;22.72;46.61;100131.00;10546074;28;20690;-89
2022/08/17 23:44:44;;;;;;;50.25;45.25;;;;;;;22.65;46.83;100142.53;10562632;28;20206;-89
2022/08/17 23:50:07;;;;;;;49.28;44.17;;;;;;;22.66;46.48;100152.78;10569397;28;20198;-92
2022/08/17 23:55:33;;;;;;;52.95;47.42;;;;;;;22.43;47.75;100159.09;10579189;28;20247;-83
